sensor_id;sensor_type;location;lat;lon;timestamp;temperature;humidity
32698;DHT22;19087;51.062;3.754;2023-09-30T00:01:01;15.60;99.90
32698;DHT22;19087;51.062;3.754;2023-09-30T00:03:27;15.60;99.90
32698;DHT22;19087;51.062;3.754;2023-09-30T00:05:54;15.60;99.90
32698;DHT22;19087;51.062;3.754;2023-09-30T00:08:19;15.60;99.90
32698;DHT22;19087;51.062;3.754;2023-09-30T00:10:45;15.50;99.90
32698;DHT22;19087;51.062;3.754;2023-09-30T00:13:12;15.50;99.90
32698;DHT22;19087;51.062;3.754;2023-09-30T00:15:38;15.50;99.90
32698;DHT22;19087;51.062;3.754;2023-09-30T00:18:04;15.50;99.90
32698;DHT22;19087;51.062;3.754;2023-09-30T00:20:31;15.60;99.90
32698;DHT22;19087;51.062;3.754;2023-09-30T00:22:57;15.60;99.90
32698;DHT22;19087;51.062;3.754;2023-09-30T00:25:23;15.60;99.90
32698;DHT22;19087;51.062;3.754;2023-09-30T00:27:49;15.60;99.90
32698;DHT22;19087;51.062;3.754;2023-09-30T00:30:15;15.60;99.90
32698;DHT22;19087;51.062;3.754;2023-09-30T00:32:42;15.60;99.90
32698;DHT22;19087;51.062;3.754;2023-09-30T00:35:08;15.50;99.90
32698;DHT22;19087;51.062;3.754;2023-09-30T00:37:38;15.50;99.90
32698;DHT22;19087;51.062;3.754;2023-09-30T00:40:04;15.40;99.90
32698;DHT22;19087;51.062;3.754;2023-09-30T00:42:30;15.50;99.90
32698;DHT22;19087;51.062;3.754;2023-09-30T00:44:56;15.50;99.90
32698;DHT22;19087;51.062;3.754;2023-09-30T00:47:23;15.60;99.90
32698;DHT22;19087;51.062;3.754;2023-09-30T00:49:50;15.50;99.90
32698;DHT22;19087;51.062;3.754;2023-09-30T00:52:17;15.40;99.90
32698;DHT22;19087;51.062;3.754;2023-09-30T00:54:44;15.40;99.90
32698;DHT22;19087;51.062;3.754;2023-09-30T00:57:12;15.40;99.90
32698;DHT22;19087;51.062;3.754;2023-09-30T00:59:39;15.40;99.90
32698;DHT22;19087;51.062;3.754;2023-09-30T01:02:06;15.50;99.90
32698;DHT22;19087;51.062;3.754;2023-09-30T01:04:32;15.50;99.90
32698;DHT22;19087;51.062;3.754;2023-09-30T01:06:58;15.50;99.90
32698;DHT22;19087;51.062;3.754;2023-09-30T01:09:24;15.50;99.90
32698;DHT22;19087;51.062;3.754;2023-09-30T01:11:50;15.50;99.90
32698;DHT22;19087;51.062;3.754;2023-09-30T01:14:29;15.40;99.90
32698;DHT22;19087;51.062;3.754;2023-09-30T01:16:55;15.40;99.90
32698;DHT22;19087;51.062;3.754;2023-09-30T01:19:28;15.40;99.90
32698;DHT22;19087;51.062;3.754;2023-09-30T01:21:57;15.40;99.90
32698;DHT22;19087;51.062;3.754;2023-09-30T01:24:28;15.40;99.90
32698;DHT22;19087;51.062;3.754;2023-09-30T01:26:56;15.40;99.90
32698;DHT22;19087;51.062;3.754;2023-09-30T01:29:23;15.40;99.90
32698;DHT22;19087;51.062;3.754;2023-09-30T01:31:51;15.40;99.90
32698;DHT22;19087;51.062;3.754;2023-09-30T01:34:18;15.40;99.90
32698;DHT22;19087;51.062;3.754;2023-09-30T01:36:44;15.40;99.90
32698;DHT22;19087;51.062;3.754;2023-09-30T01:39:10;15.40;99.90
32698;DHT22;19087;51.062;3.754;2023-09-30T01:41:37;15.40;99.90
32698;DHT22;19087;51.062;3.754;2023-09-30T01:44:04;15.40;99.90
32698;DHT22;19087;51.062;3.754;2023-09-30T01:46:30;15.40;99.90
32698;DHT22;19087;51.062;3.754;2023-09-30T01:48:55;15.30;99.90
32698;DHT22;19087;51.062;3.754;2023-09-30T01:51:21;15.30;99.90
32698;DHT22;19087;51.062;3.754;2023-09-30T01:53:48;15.30;99.90
32698;DHT22;19087;51.062;3.754;2023-09-30T01:56:15;15.30;99.90
32698;DHT22;19087;51.062;3.754;2023-09-30T01:58:40;15.30;99.90
32698;DHT22;19087;51.062;3.754;2023-09-30T02:01:06;15.30;99.90
32698;DHT22;19087;51.062;3.754;2023-09-30T02:03:32;15.20;99.90
32698;DHT22;19087;51.062;3.754;2023-09-30T02:05:58;15.20;99.90
32698;DHT22;19087;51.062;3.754;2023-09-30T02:08:24;15.10;99.90
32698;DHT22;19087;51.062;3.754;2023-09-30T02:10:50;15.20;99.90
32698;DHT22;19087;51.062;3.754;2023-09-30T02:13:19;15.20;99.90
32698;DHT22;19087;51.062;3.754;2023-09-30T02:15:46;15.20;99.90
32698;DHT22;19087;51.062;3.754;2023-09-30T02:18:12;15.20;99.90
32698;DHT22;19087;51.062;3.754;2023-09-30T02:20:38;15.10;99.90
32698;DHT22;19087;51.062;3.754;2023-09-30T02:23:10;15.20;99.90
32698;DHT22;19087;51.062;3.754;2023-09-30T02:25:40;15.20;99.90
32698;DHT22;19087;51.062;3.754;2023-09-30T02:28:06;15.20;99.90
32698;DHT22;19087;51.062;3.754;2023-09-30T02:30:32;15.30;99.90
32698;DHT22;19087;51.062;3.754;2023-09-30T02:33:01;15.30;99.90
32698;DHT22;19087;51.062;3.754;2023-09-30T02:35:33;15.20;99.90
32698;DHT22;19087;51.062;3.754;2023-09-30T02:37:59;15.20;99.90
32698;DHT22;19087;51.062;3.754;2023-09-30T02:40:28;15.30;99.90
32698;DHT22;19087;51.062;3.754;2023-09-30T02:42:53;15.30;99.90
32698;DHT22;19087;51.062;3.754;2023-09-30T02:45:19;15.20;99.90
32698;DHT22;19087;51.062;3.754;2023-09-30T02:47:46;15.20;99.90
32698;DHT22;19087;51.062;3.754;2023-09-30T02:50:12;15.20;99.90
32698;DHT22;19087;51.062;3.754;2023-09-30T02:52:38;15.20;99.90
32698;DHT22;19087;51.062;3.754;2023-09-30T02:55:08;15.30;99.90
32698;DHT22;19087;51.062;3.754;2023-09-30T02:57:34;15.30;99.90
32698;DHT22;19087;51.062;3.754;2023-09-30T03:00:03;15.30;99.90
32698;DHT22;19087;51.062;3.754;2023-09-30T03:02:40;15.30;99.90
32698;DHT22;19087;51.062;3.754;2023-09-30T03:05:07;15.30;99.90
32698;DHT22;19087;51.062;3.754;2023-09-30T03:07:33;15.30;99.90
32698;DHT22;19087;51.062;3.754;2023-09-30T03:09:59;15.30;99.90
32698;DHT22;19087;51.062;3.754;2023-09-30T03:12:25;15.20;99.90
32698;DHT22;19087;51.062;3.754;2023-09-30T03:14:51;15.20;99.90
32698;DHT22;19087;51.062;3.754;2023-09-30T03:17:18;15.20;99.90
32698;DHT22;19087;51.062;3.754;2023-09-30T03:19:44;15.20;99.90
32698;DHT22;19087;51.062;3.754;2023-09-30T03:22:10;15.20;99.90
32698;DHT22;19087;51.062;3.754;2023-09-30T03:24:41;15.20;99.90
32698;DHT22;19087;51.062;3.754;2023-09-30T03:27:07;15.20;99.90
32698;DHT22;19087;51.062;3.754;2023-09-30T03:29:35;15.20;99.90
32698;DHT22;19087;51.062;3.754;2023-09-30T03:32:04;15.20;99.90
32698;DHT22;19087;51.062;3.754;2023-09-30T03:34:30;15.10;99.90
32698;DHT22;19087;51.062;3.754;2023-09-30T03:36:56;15.10;99.90
32698;DHT22;19087;51.062;3.754;2023-09-30T03:39:24;15.10;99.90
32698;DHT22;19087;51.062;3.754;2023-09-30T03:41:54;15.10;99.90
32698;DHT22;19087;51.062;3.754;2023-09-30T03:44:22;15.00;99.90
32698;DHT22;19087;51.062;3.754;2023-09-30T03:46:48;15.10;99.90
32698;DHT22;19087;51.062;3.754;2023-09-30T03:49:15;15.10;99.90
32698;DHT22;19087;51.062;3.754;2023-09-30T03:51:42;15.10;99.90
32698;DHT22;19087;51.062;3.754;2023-09-30T03:54:08;15.10;99.90
32698;DHT22;19087;51.062;3.754;2023-09-30T03:56:35;15.00;99.90
32698;DHT22;19087;51.062;3.754;2023-09-30T03:59:02;14.90;99.90
32698;DHT22;19087;51.062;3.754;2023-09-30T04:01:27;14.90;99.90
32698;DHT22;19087;51.062;3.754;2023-09-30T04:03:53;14.80;99.90
32698;DHT22;19087;51.062;3.754;2023-09-30T04:06:23;14.80;99.90
32698;DHT22;19087;51.062;3.754;2023-09-30T04:08:49;14.80;99.90
32698;DHT22;19087;51.062;3.754;2023-09-30T04:11:15;14.90;99.90
32698;DHT22;19087;51.062;3.754;2023-09-30T04:13:48;14.80;99.90
32698;DHT22;19087;51.062;3.754;2023-09-30T04:16:15;14.70;99.90
32698;DHT22;19087;51.062;3.754;2023-09-30T04:18:42;14.70;99.90
32698;DHT22;19087;51.062;3.754;2023-09-30T04:21:07;14.70;99.90
32698;DHT22;19087;51.062;3.754;2023-09-30T04:23:33;14.80;99.90
32698;DHT22;19087;51.062;3.754;2023-09-30T04:26:02;14.80;99.90
32698;DHT22;19087;51.062;3.754;2023-09-30T04:28:28;14.80;99.90
32698;DHT22;19087;51.062;3.754;2023-09-30T04:30:54;14.70;99.90
32698;DHT22;19087;51.062;3.754;2023-09-30T04:33:20;14.80;99.90
32698;DHT22;19087;51.062;3.754;2023-09-30T04:35:49;14.70;99.90
32698;DHT22;19087;51.062;3.754;2023-09-30T04:38:17;14.70;99.90
32698;DHT22;19087;51.062;3.754;2023-09-30T04:40:44;14.70;99.90
32698;DHT22;19087;51.062;3.754;2023-09-30T04:43:13;14.70;99.90
32698;DHT22;19087;51.062;3.754;2023-09-30T04:45:40;14.70;99.90
32698;DHT22;19087;51.062;3.754;2023-09-30T04:48:14;14.70;99.90
32698;DHT22;19087;51.062;3.754;2023-09-30T04:50:42;14.70;99.90
32698;DHT22;19087;51.062;3.754;2023-09-30T04:53:10;14.70;99.90
32698;DHT22;19087;51.062;3.754;2023-09-30T04:55:36;14.70;99.90
32698;DHT22;19087;51.062;3.754;2023-09-30T04:58:04;14.70;99.90
32698;DHT22;19087;51.062;3.754;2023-09-30T05:00:30;14.70;99.90
32698;DHT22;19087;51.062;3.754;2023-09-30T05:02:59;14.60;99.90
32698;DHT22;19087;51.062;3.754;2023-09-30T05:05:27;14.60;99.90
32698;DHT22;19087;51.062;3.754;2023-09-30T05:07:56;14.60;99.90
32698;DHT22;19087;51.062;3.754;2023-09-30T05:10:24;14.60;99.90
32698;DHT22;19087;51.062;3.754;2023-09-30T05:12:51;14.60;99.90
32698;DHT22;19087;51.062;3.754;2023-09-30T05:15:21;14.60;99.90
32698;DHT22;19087;51.062;3.754;2023-09-30T05:17:50;14.60;99.90
32698;DHT22;19087;51.062;3.754;2023-09-30T05:20:19;14.60;99.90
32698;DHT22;19087;51.062;3.754;2023-09-30T05:22:45;14.50;99.90
32698;DHT22;19087;51.062;3.754;2023-09-30T05:25:12;14.60;99.90
32698;DHT22;19087;51.062;3.754;2023-09-30T05:27:42;14.60;99.90
32698;DHT22;19087;51.062;3.754;2023-09-30T05:30:09;14.50;99.90
32698;DHT22;19087;51.062;3.754;2023-09-30T05:32:37;14.40;99.90
32698;DHT22;19087;51.062;3.754;2023-09-30T05:35:05;14.40;99.90
32698;DHT22;19087;51.062;3.754;2023-09-30T05:37:32;14.40;99.90
32698;DHT22;19087;51.062;3.754;2023-09-30T05:39:59;14.40;99.90
32698;DHT22;19087;51.062;3.754;2023-09-30T05:42:27;14.40;99.90
32698;DHT22;19087;51.062;3.754;2023-09-30T05:44:53;14.40;99.90
32698;DHT22;19087;51.062;3.754;2023-09-30T05:47:19;14.40;99.90
32698;DHT22;19087;51.062;3.754;2023-09-30T05:49:44;14.40;99.90
32698;DHT22;19087;51.062;3.754;2023-09-30T05:52:10;14.40;99.90
32698;DHT22;19087;51.062;3.754;2023-09-30T05:54:36;14.40;99.90
32698;DHT22;19087;51.062;3.754;2023-09-30T05:57:02;14.40;99.90
32698;DHT22;19087;51.062;3.754;2023-09-30T05:59:29;14.40;99.90
32698;DHT22;19087;51.062;3.754;2023-09-30T06:01:57;14.40;99.90
32698;DHT22;19087;51.062;3.754;2023-09-30T06:04:22;14.40;99.90
32698;DHT22;19087;51.062;3.754;2023-09-30T06:06:48;14.40;99.90
32698;DHT22;19087;51.062;3.754;2023-09-30T06:09:14;14.30;99.90
32698;DHT22;19087;51.062;3.754;2023-09-30T06:11:41;14.40;99.90
32698;DHT22;19087;51.062;3.754;2023-09-30T06:14:08;14.50;99.90
32698;DHT22;19087;51.062;3.754;2023-09-30T06:16:36;14.60;99.90
32698;DHT22;19087;51.062;3.754;2023-09-30T06:19:01;14.60;99.90
32698;DHT22;19087;51.062;3.754;2023-09-30T06:21:28;14.60;99.90
32698;DHT22;19087;51.062;3.754;2023-09-30T06:23:55;14.50;99.90
32698;DHT22;19087;51.062;3.754;2023-09-30T06:26:21;14.60;99.90
32698;DHT22;19087;51.062;3.754;2023-09-30T06:28:48;14.60;99.90
32698;DHT22;19087;51.062;3.754;2023-09-30T06:31:14;14.60;99.90
32698;DHT22;19087;51.062;3.754;2023-09-30T06:33:41;14.70;99.90
32698;DHT22;19087;51.062;3.754;2023-09-30T06:36:14;14.70;99.90
32698;DHT22;19087;51.062;3.754;2023-09-30T06:38:40;14.80;99.90
32698;DHT22;19087;51.062;3.754;2023-09-30T06:41:08;14.80;99.90
32698;DHT22;19087;51.062;3.754;2023-09-30T06:43:34;14.90;99.90
32698;DHT22;19087;51.062;3.754;2023-09-30T06:46:09;15.10;99.90
32698;DHT22;19087;51.062;3.754;2023-09-30T06:48:36;15.50;99.90
32698;DHT22;19087;51.062;3.754;2023-09-30T06:51:02;15.90;99.90
32698;DHT22;19087;51.062;3.754;2023-09-30T06:53:28;16.30;99.90
32698;DHT22;19087;51.062;3.754;2023-09-30T06:55:54;16.70;99.90
32698;DHT22;19087;51.062;3.754;2023-09-30T06:58:20;17.10;99.90
32698;DHT22;19087;51.062;3.754;2023-09-30T07:00:55;17.50;99.90
32698;DHT22;19087;51.062;3.754;2023-09-30T07:03:22;17.80;99.90
32698;DHT22;19087;51.062;3.754;2023-09-30T07:05:47;18.10;99.90
32698;DHT22;19087;51.062;3.754;2023-09-30T07:08:17;18.30;99.90
32698;DHT22;19087;51.062;3.754;2023-09-30T07:10:44;18.30;99.90
32698;DHT22;19087;51.062;3.754;2023-09-30T07:13:12;18.50;99.90
32698;DHT22;19087;51.062;3.754;2023-09-30T07:15:38;18.90;99.90
32698;DHT22;19087;51.062;3.754;2023-09-30T07:18:06;19.20;99.90
32698;DHT22;19087;51.062;3.754;2023-09-30T07:20:40;19.60;99.90
32698;DHT22;19087;51.062;3.754;2023-09-30T07:23:05;20.00;99.90
32698;DHT22;19087;51.062;3.754;2023-09-30T07:25:31;20.30;99.90
32698;DHT22;19087;51.062;3.754;2023-09-30T07:28:00;20.50;99.90
32698;DHT22;19087;51.062;3.754;2023-09-30T07:30:26;20.70;99.90
32698;DHT22;19087;51.062;3.754;2023-09-30T07:32:52;20.70;99.90
32698;DHT22;19087;51.062;3.754;2023-09-30T07:35:18;20.90;99.90
32698;DHT22;19087;51.062;3.754;2023-09-30T07:37:44;20.90;99.90
32698;DHT22;19087;51.062;3.754;2023-09-30T07:40:11;21.00;99.90
32698;DHT22;19087;51.062;3.754;2023-09-30T07:42:36;21.10;99.90
32698;DHT22;19087;51.062;3.754;2023-09-30T07:45:03;20.90;99.90
32698;DHT22;19087;51.062;3.754;2023-09-30T07:47:31;20.80;99.90
32698;DHT22;19087;51.062;3.754;2023-09-30T07:49:59;20.60;99.90
32698;DHT22;19087;51.062;3.754;2023-09-30T07:52:25;20.40;99.90
32698;DHT22;19087;51.062;3.754;2023-09-30T07:54:51;20.10;99.90
32698;DHT22;19087;51.062;3.754;2023-09-30T07:57:17;20.00;99.90
32698;DHT22;19087;51.062;3.754;2023-09-30T07:59:43;19.60;99.90
32698;DHT22;19087;51.062;3.754;2023-09-30T08:02:08;19.30;99.90
32698;DHT22;19087;51.062;3.754;2023-09-30T08:04:35;18.90;99.90
32698;DHT22;19087;51.062;3.754;2023-09-30T08:07:02;18.70;99.90
32698;DHT22;19087;51.062;3.754;2023-09-30T08:09:27;18.60;99.90
32698;DHT22;19087;51.062;3.754;2023-09-30T08:11:53;18.60;99.90
32698;DHT22;19087;51.062;3.754;2023-09-30T08:14:19;18.60;99.90
32698;DHT22;19087;51.062;3.754;2023-09-30T08:16:45;18.70;99.90
32698;DHT22;19087;51.062;3.754;2023-09-30T08:19:12;18.50;99.90
32698;DHT22;19087;51.062;3.754;2023-09-30T08:21:38;18.50;99.90
32698;DHT22;19087;51.062;3.754;2023-09-30T08:24:04;18.60;99.90
32698;DHT22;19087;51.062;3.754;2023-09-30T08:26:29;18.30;99.90
32698;DHT22;19087;51.062;3.754;2023-09-30T08:28:55;18.20;99.90
32698;DHT22;19087;51.062;3.754;2023-09-30T08:31:21;18.30;99.90
32698;DHT22;19087;51.062;3.754;2023-09-30T08:33:47;18.00;99.90
32698;DHT22;19087;51.062;3.754;2023-09-30T08:36:19;18.00;99.90
32698;DHT22;19087;51.062;3.754;2023-09-30T08:38:45;18.20;99.90
32698;DHT22;19087;51.062;3.754;2023-09-30T08:41:23;18.20;99.90
32698;DHT22;19087;51.062;3.754;2023-09-30T08:43:50;18.20;99.90
32698;DHT22;19087;51.062;3.754;2023-09-30T08:46:17;18.40;99.90
32698;DHT22;19087;51.062;3.754;2023-09-30T08:48:43;18.50;99.90
32698;DHT22;19087;51.062;3.754;2023-09-30T08:51:09;18.60;99.90
32698;DHT22;19087;51.062;3.754;2023-09-30T08:53:35;18.70;99.90
32698;DHT22;19087;51.062;3.754;2023-09-30T08:56:02;18.80;99.90
32698;DHT22;19087;51.062;3.754;2023-09-30T08:58:33;18.80;99.90
32698;DHT22;19087;51.062;3.754;2023-09-30T09:01:01;18.80;99.90
32698;DHT22;19087;51.062;3.754;2023-09-30T09:03:28;18.90;99.90
32698;DHT22;19087;51.062;3.754;2023-09-30T09:05:55;18.90;99.90
32698;DHT22;19087;51.062;3.754;2023-09-30T09:08:26;18.90;99.90
32698;DHT22;19087;51.062;3.754;2023-09-30T09:10:57;19.00;99.90
32698;DHT22;19087;51.062;3.754;2023-09-30T09:13:23;19.10;99.90
32698;DHT22;19087;51.062;3.754;2023-09-30T09:15:49;19.20;99.90
32698;DHT22;19087;51.062;3.754;2023-09-30T09:18:31;19.10;99.90
32698;DHT22;19087;51.062;3.754;2023-09-30T09:21:23;19.30;99.90
32698;DHT22;19087;51.062;3.754;2023-09-30T09:23:54;19.50;99.90
32698;DHT22;19087;51.062;3.754;2023-09-30T09:26:26;19.70;99.90
32698;DHT22;19087;51.062;3.754;2023-09-30T09:29:03;19.90;99.90
32698;DHT22;19087;51.062;3.754;2023-09-30T09:31:32;20.00;99.90
32698;DHT22;19087;51.062;3.754;2023-09-30T09:34:03;20.10;99.90
32698;DHT22;19087;51.062;3.754;2023-09-30T09:36:42;20.20;99.90
32698;DHT22;19087;51.062;3.754;2023-09-30T09:39:09;20.20;99.90
32698;DHT22;19087;51.062;3.754;2023-09-30T09:41:52;20.00;99.90
32698;DHT22;19087;51.062;3.754;2023-09-30T09:44:22;20.20;99.90
32698;DHT22;19087;51.062;3.754;2023-09-30T09:46:49;20.20;99.90
32698;DHT22;19087;51.062;3.754;2023-09-30T09:49:16;20.30;99.90
32698;DHT22;19087;51.062;3.754;2023-09-30T09:51:45;20.50;99.90
32698;DHT22;19087;51.062;3.754;2023-09-30T09:54:14;20.60;99.90
32698;DHT22;19087;51.062;3.754;2023-09-30T09:56:44;20.80;99.90
32698;DHT22;19087;51.062;3.754;2023-09-30T09:59:12;20.90;99.90
32698;DHT22;19087;51.062;3.754;2023-09-30T10:01:42;21.00;99.90
32698;DHT22;19087;51.062;3.754;2023-09-30T10:04:11;21.00;99.90
32698;DHT22;19087;51.062;3.754;2023-09-30T10:06:37;21.00;99.90
32698;DHT22;19087;51.062;3.754;2023-09-30T10:09:09;20.90;99.90
32698;DHT22;19087;51.062;3.754;2023-09-30T10:11:36;21.00;99.90
32698;DHT22;19087;51.062;3.754;2023-09-30T10:14:03;21.10;99.90
32698;DHT22;19087;51.062;3.754;2023-09-30T10:19:20;21.00;99.90
32698;DHT22;19087;51.062;3.754;2023-09-30T10:24:49;20.60;99.90
32698;DHT22;19087;51.062;3.754;2023-09-30T10:30:06;20.50;99.90
32698;DHT22;19087;51.062;3.754;2023-09-30T10:40:51;20.40;99.90
32698;DHT22;19087;51.062;3.754;2023-09-30T10:43:37;20.30;99.90
32698;DHT22;19087;51.062;3.754;2023-09-30T10:48:52;20.50;99.90
32698;DHT22;19087;51.062;3.754;2023-09-30T10:51:19;20.10;99.90
32698;DHT22;19087;51.062;3.754;2023-09-30T10:53:50;20.10;99.90
32698;DHT22;19087;51.062;3.754;2023-09-30T10:56:22;20.20;99.90
32698;DHT22;19087;51.062;3.754;2023-09-30T10:58:52;20.10;99.90
32698;DHT22;19087;51.062;3.754;2023-09-30T11:01:24;20.00;99.90
32698;DHT22;19087;51.062;3.754;2023-09-30T11:03:59;20.10;99.90
32698;DHT22;19087;51.062;3.754;2023-09-30T11:06:29;20.20;99.90
32698;DHT22;19087;51.062;3.754;2023-09-30T11:08:59;20.20;99.90
32698;DHT22;19087;51.062;3.754;2023-09-30T11:11:42;20.30;99.90
32698;DHT22;19087;51.062;3.754;2023-09-30T11:14:31;20.40;99.90
32698;DHT22;19087;51.062;3.754;2023-09-30T11:17:03;20.40;99.90
32698;DHT22;19087;51.062;3.754;2023-09-30T11:19:56;20.40;99.90
32698;DHT22;19087;51.062;3.754;2023-09-30T11:22:21;20.50;99.90
32698;DHT22;19087;51.062;3.754;2023-09-30T11:24:48;20.70;99.90
32698;DHT22;19087;51.062;3.754;2023-09-30T11:27:22;20.60;99.90
32698;DHT22;19087;51.062;3.754;2023-09-30T11:29:50;20.60;99.90
32698;DHT22;19087;51.062;3.754;2023-09-30T11:32:27;20.70;99.90
32698;DHT22;19087;51.062;3.754;2023-09-30T11:34:54;21.00;99.90
32698;DHT22;19087;51.062;3.754;2023-09-30T11:37:20;21.20;99.90
32698;DHT22;19087;51.062;3.754;2023-09-30T11:39:47;21.10;99.90
32698;DHT22;19087;51.062;3.754;2023-09-30T11:42:18;20.90;99.90
32698;DHT22;19087;51.062;3.754;2023-09-30T11:44:46;21.10;99.90
32698;DHT22;19087;51.062;3.754;2023-09-30T11:47:15;21.40;99.90
32698;DHT22;19087;51.062;3.754;2023-09-30T11:49:43;21.60;99.90
32698;DHT22;19087;51.062;3.754;2023-09-30T11:52:14;21.60;99.90
32698;DHT22;19087;51.062;3.754;2023-09-30T11:54:43;21.60;99.90
32698;DHT22;19087;51.062;3.754;2023-09-30T11:57:15;21.70;99.90
32698;DHT22;19087;51.062;3.754;2023-09-30T11:59:43;21.90;99.90
32698;DHT22;19087;51.062;3.754;2023-09-30T12:02:16;22.00;99.90
32698;DHT22;19087;51.062;3.754;2023-09-30T12:04:46;22.20;99.90
32698;DHT22;19087;51.062;3.754;2023-09-30T12:07:12;22.30;99.90
32698;DHT22;19087;51.062;3.754;2023-09-30T12:09:38;22.40;99.90
32698;DHT22;19087;51.062;3.754;2023-09-30T12:12:05;22.60;99.90
32698;DHT22;19087;51.062;3.754;2023-09-30T12:14:36;22.60;99.90
32698;DHT22;19087;51.062;3.754;2023-09-30T12:17:02;22.80;99.90
32698;DHT22;19087;51.062;3.754;2023-09-30T12:19:28;22.90;99.90
32698;DHT22;19087;51.062;3.754;2023-09-30T12:21:55;22.90;99.90
32698;DHT22;19087;51.062;3.754;2023-09-30T12:24:21;22.90;99.90
32698;DHT22;19087;51.062;3.754;2023-09-30T12:26:47;22.90;99.90
32698;DHT22;19087;51.062;3.754;2023-09-30T12:29:17;22.80;99.90
32698;DHT22;19087;51.062;3.754;2023-09-30T12:31:47;22.90;99.90
32698;DHT22;19087;51.062;3.754;2023-09-30T12:34:13;23.00;99.90
32698;DHT22;19087;51.062;3.754;2023-09-30T12:36:39;23.00;99.90
32698;DHT22;19087;51.062;3.754;2023-09-30T12:39:06;23.10;99.90
32698;DHT22;19087;51.062;3.754;2023-09-30T12:41:40;23.10;99.90
32698;DHT22;19087;51.062;3.754;2023-09-30T12:44:07;23.00;99.70
32698;DHT22;19087;51.062;3.754;2023-09-30T12:46:34;23.00;99.90
32698;DHT22;19087;51.062;3.754;2023-09-30T12:49:05;23.00;99.90
32698;DHT22;19087;51.062;3.754;2023-09-30T12:51:31;23.00;99.60
32698;DHT22;19087;51.062;3.754;2023-09-30T12:53:57;22.80;99.90
32698;DHT22;19087;51.062;3.754;2023-09-30T12:56:24;22.80;99.90
32698;DHT22;19087;51.062;3.754;2023-09-30T12:58:50;22.80;99.90
32698;DHT22;19087;51.062;3.754;2023-09-30T13:01:22;22.90;99.90
32698;DHT22;19087;51.062;3.754;2023-09-30T13:03:48;22.90;99.90
32698;DHT22;19087;51.062;3.754;2023-09-30T13:06:14;23.00;99.90
32698;DHT22;19087;51.062;3.754;2023-09-30T13:08:41;23.00;99.90
32698;DHT22;19087;51.062;3.754;2023-09-30T13:11:07;23.00;99.50
32698;DHT22;19087;51.062;3.754;2023-09-30T13:13:34;23.00;99.90
32698;DHT22;19087;51.062;3.754;2023-09-30T13:16:01;23.00;99.90
32698;DHT22;19087;51.062;3.754;2023-09-30T13:18:27;23.10;99.90
32698;DHT22;19087;51.062;3.754;2023-09-30T13:20:53;23.10;99.20
32698;DHT22;19087;51.062;3.754;2023-09-30T13:23:19;23.10;98.90
32698;DHT22;19087;51.062;3.754;2023-09-30T13:25:45;22.70;98.80
32698;DHT22;19087;51.062;3.754;2023-09-30T13:28:10;22.20;99.00
32698;DHT22;19087;51.062;3.754;2023-09-30T13:30:37;22.10;99.80
32698;DHT22;19087;51.062;3.754;2023-09-30T13:33:03;22.00;99.90
32698;DHT22;19087;51.062;3.754;2023-09-30T13:35:28;22.10;99.90
32698;DHT22;19087;51.062;3.754;2023-09-30T13:37:58;22.30;99.70
32698;DHT22;19087;51.062;3.754;2023-09-30T13:40:24;22.30;99.00
32698;DHT22;19087;51.062;3.754;2023-09-30T13:42:49;22.30;99.00
32698;DHT22;19087;51.062;3.754;2023-09-30T13:45:15;22.10;99.30
32698;DHT22;19087;51.062;3.754;2023-09-30T13:47:44;22.20;99.50
32698;DHT22;19087;51.062;3.754;2023-09-30T13:50:16;22.40;99.60
32698;DHT22;19087;51.062;3.754;2023-09-30T13:52:42;22.60;99.50
32698;DHT22;19087;51.062;3.754;2023-09-30T13:55:08;22.40;98.80
32698;DHT22;19087;51.062;3.754;2023-09-30T13:57:34;22.30;98.90
32698;DHT22;19087;51.062;3.754;2023-09-30T14:00:02;22.50;99.00
32698;DHT22;19087;51.062;3.754;2023-09-30T14:02:31;22.60;98.30
32698;DHT22;19087;51.062;3.754;2023-09-30T14:04:56;22.70;98.80
32698;DHT22;19087;51.062;3.754;2023-09-30T14:07:22;22.80;98.40
32698;DHT22;19087;51.062;3.754;2023-09-30T14:09:48;22.80;98.00
32698;DHT22;19087;51.062;3.754;2023-09-30T14:12:15;22.80;98.50
32698;DHT22;19087;51.062;3.754;2023-09-30T14:14:42;22.80;98.40
32698;DHT22;19087;51.062;3.754;2023-09-30T14:17:09;22.70;98.40
32698;DHT22;19087;51.062;3.754;2023-09-30T14:19:40;22.70;98.60
32698;DHT22;19087;51.062;3.754;2023-09-30T14:22:06;22.60;98.70
32698;DHT22;19087;51.062;3.754;2023-09-30T14:24:34;22.70;98.20
32698;DHT22;19087;51.062;3.754;2023-09-30T14:27:02;22.60;97.40
32698;DHT22;19087;51.062;3.754;2023-09-30T14:29:31;22.30;97.70
32698;DHT22;19087;51.062;3.754;2023-09-30T14:31:57;22.40;98.50
32698;DHT22;19087;51.062;3.754;2023-09-30T14:34:23;22.50;98.80
32698;DHT22;19087;51.062;3.754;2023-09-30T14:36:49;22.50;97.80
32698;DHT22;19087;51.062;3.754;2023-09-30T14:39:16;22.40;98.60
32698;DHT22;19087;51.062;3.754;2023-09-30T14:41:43;22.30;98.70
32698;DHT22;19087;51.062;3.754;2023-09-30T14:44:09;22.30;99.00
32698;DHT22;19087;51.062;3.754;2023-09-30T14:46:38;22.40;99.30
32698;DHT22;19087;51.062;3.754;2023-09-30T14:49:05;22.40;99.20
32698;DHT22;19087;51.062;3.754;2023-09-30T14:51:34;22.30;98.70
32698;DHT22;19087;51.062;3.754;2023-09-30T14:54:00;22.30;98.70
32698;DHT22;19087;51.062;3.754;2023-09-30T14:56:27;22.20;98.10
32698;DHT22;19087;51.062;3.754;2023-09-30T14:58:52;21.90;98.20
32698;DHT22;19087;51.062;3.754;2023-09-30T15:01:18;21.80;98.30
32698;DHT22;19087;51.062;3.754;2023-09-30T15:03:45;21.80;99.20
32698;DHT22;19087;51.062;3.754;2023-09-30T15:06:11;21.90;99.40
32698;DHT22;19087;51.062;3.754;2023-09-30T15:08:37;21.80;98.80
32698;DHT22;19087;51.062;3.754;2023-09-30T15:11:03;21.70;98.50
32698;DHT22;19087;51.062;3.754;2023-09-30T15:13:29;21.80;99.30
32698;DHT22;19087;51.062;3.754;2023-09-30T15:15:56;21.70;99.10
32698;DHT22;19087;51.062;3.754;2023-09-30T15:18:21;22.00;99.90
32698;DHT22;19087;51.062;3.754;2023-09-30T15:20:51;22.00;99.60
32698;DHT22;19087;51.062;3.754;2023-09-30T15:23:20;22.00;99.60
32698;DHT22;19087;51.062;3.754;2023-09-30T15:25:46;22.10;99.50
32698;DHT22;19087;51.062;3.754;2023-09-30T15:28:13;22.10;99.40
32698;DHT22;19087;51.062;3.754;2023-09-30T15:30:39;22.00;98.70
32698;DHT22;19087;51.062;3.754;2023-09-30T15:33:05;22.00;99.40
32698;DHT22;19087;51.062;3.754;2023-09-30T15:35:33;21.90;99.30
32698;DHT22;19087;51.062;3.754;2023-09-30T15:38:00;21.90;99.20
32698;DHT22;19087;51.062;3.754;2023-09-30T15:40:26;21.80;99.00
32698;DHT22;19087;51.062;3.754;2023-09-30T15:42:52;21.80;99.30
32698;DHT22;19087;51.062;3.754;2023-09-30T15:45:18;21.80;99.60
32698;DHT22;19087;51.062;3.754;2023-09-30T15:47:44;21.80;99.70
32698;DHT22;19087;51.062;3.754;2023-09-30T15:50:11;21.80;99.60
32698;DHT22;19087;51.062;3.754;2023-09-30T15:52:37;21.70;99.60